sensor_id;sensor_type;location;lat;lon;timestamp;temperature;humidity
18456;DHT22;9357;49.900;8.208;2022-10-16T00:00:26;16.20;99.90
18456;DHT22;9357;49.900;8.208;2022-10-16T00:01:59;16.20;99.90
18456;DHT22;9357;49.900;8.208;2022-10-16T00:03:32;16.20;99.90
18456;DHT22;9357;49.900;8.208;2022-10-16T00:05:04;16.20;99.90
18456;DHT22;9357;49.900;8.208;2022-10-16T00:06:37;16.20;99.90
18456;DHT22;9357;49.900;8.208;2022-10-16T00:08:11;16.20;99.90
18456;DHT22;9357;49.900;8.208;2022-10-16T00:09:45;16.20;99.90
18456;DHT22;9357;49.900;8.208;2022-10-16T00:11:20;16.20;99.90
18456;DHT22;9357;49.900;8.208;2022-10-16T00:12:53;16.20;99.90
18456;DHT22;9357;49.900;8.208;2022-10-16T00:14:25;16.30;99.90
18456;DHT22;9357;49.900;8.208;2022-10-16T00:16:00;16.30;99.90
18456;DHT22;9357;49.900;8.208;2022-10-16T00:17:33;16.20;99.90
18456;DHT22;9357;49.900;8.208;2022-10-16T00:19:06;16.30;99.90
18456;DHT22;9357;49.900;8.208;2022-10-16T00:20:39;16.30;99.90
18456;DHT22;9357;49.900;8.208;2022-10-16T00:22:11;16.30;99.90
18456;DHT22;9357;49.900;8.208;2022-10-16T00:23:43;16.30;99.90
18456;DHT22;9357;49.900;8.208;2022-10-16T00:25:16;16.30;99.90
18456;DHT22;9357;49.900;8.208;2022-10-16T00:26:49;16.30;99.90
18456;DHT22;9357;49.900;8.208;2022-10-16T00:28:22;16.30;99.90
18456;DHT22;9357;49.900;8.208;2022-10-16T00:29:54;16.30;99.90
18456;DHT22;9357;49.900;8.208;2022-10-16T00:31:28;16.30;99.90
18456;DHT22;9357;49.900;8.208;2022-10-16T00:33:01;16.30;99.90
18456;DHT22;9357;49.900;8.208;2022-10-16T00:34:33;16.30;99.90
18456;DHT22;9357;49.900;8.208;2022-10-16T00:36:08;16.30;99.90
18456;DHT22;9357;49.900;8.208;2022-10-16T00:37:41;16.30;99.90
18456;DHT22;9357;49.900;8.208;2022-10-16T00:39:14;16.30;99.90
18456;DHT22;9357;49.900;8.208;2022-10-16T00:40:47;16.30;99.90
18456;DHT22;9357;49.900;8.208;2022-10-16T00:42:19;16.30;99.90
18456;DHT22;9357;49.900;8.208;2022-10-16T00:43:53;16.30;99.90
18456;DHT22;9357;49.900;8.208;2022-10-16T00:45:26;16.30;99.90
18456;DHT22;9357;49.900;8.208;2022-10-16T00:47:00;16.30;99.90
18456;DHT22;9357;49.900;8.208;2022-10-16T00:48:32;16.30;99.90
18456;DHT22;9357;49.900;8.208;2022-10-16T00:50:08;16.30;99.90
18456;DHT22;9357;49.900;8.208;2022-10-16T00:51:44;16.40;99.90
18456;DHT22;9357;49.900;8.208;2022-10-16T00:53:17;16.40;99.90
18456;DHT22;9357;49.900;8.208;2022-10-16T00:54:52;16.40;99.90
18456;DHT22;9357;49.900;8.208;2022-10-16T00:56:26;16.40;99.90
18456;DHT22;9357;49.900;8.208;2022-10-16T00:57:59;16.40;99.90
18456;DHT22;9357;49.900;8.208;2022-10-16T00:59:34;16.40;99.90
18456;DHT22;9357;49.900;8.208;2022-10-16T01:01:07;16.40;99.90
18456;DHT22;9357;49.900;8.208;2022-10-16T01:02:42;16.40;99.90
18456;DHT22;9357;49.900;8.208;2022-10-16T01:04:14;16.40;99.90
18456;DHT22;9357;49.900;8.208;2022-10-16T01:05:53;16.40;99.90
18456;DHT22;9357;49.900;8.208;2022-10-16T01:07:35;16.40;99.90
18456;DHT22;9357;49.900;8.208;2022-10-16T01:09:14;16.40;99.90
18456;DHT22;9357;49.900;8.208;2022-10-16T01:10:54;16.40;99.90
18456;DHT22;9357;49.900;8.208;2022-10-16T01:12:36;16.40;99.90
18456;DHT22;9357;49.900;8.208;2022-10-16T01:14:20;16.40;99.90
18456;DHT22;9357;49.900;8.208;2022-10-16T01:15:58;16.40;99.90
18456;DHT22;9357;49.900;8.208;2022-10-16T01:17:35;16.40;99.90
18456;DHT22;9357;49.900;8.208;2022-10-16T01:19:17;16.40;99.90
18456;DHT22;9357;49.900;8.208;2022-10-16T01:20:55;16.40;99.90
18456;DHT22;9357;49.900;8.208;2022-10-16T01:22:38;16.40;99.90
18456;DHT22;9357;49.900;8.208;2022-10-16T01:24:17;16.40;99.90
18456;DHT22;9357;49.900;8.208;2022-10-16T01:26:15;16.40;99.90
18456;DHT22;9357;49.900;8.208;2022-10-16T01:27:53;16.40;99.90
18456;DHT22;9357;49.900;8.208;2022-10-16T01:29:30;16.30;99.90
18456;DHT22;9357;49.900;8.208;2022-10-16T01:31:06;16.30;99.90
18456;DHT22;9357;49.900;8.208;2022-10-16T01:32:41;16.30;99.90
18456;DHT22;9357;49.900;8.208;2022-10-16T01:34:17;16.30;99.90
18456;DHT22;9357;49.900;8.208;2022-10-16T01:35:53;16.30;99.90
18456;DHT22;9357;49.900;8.208;2022-10-16T01:37:33;16.30;99.90
18456;DHT22;9357;49.900;8.208;2022-10-16T01:39:09;16.30;99.90
18456;DHT22;9357;49.900;8.208;2022-10-16T01:40:47;16.30;99.90
18456;DHT22;9357;49.900;8.208;2022-10-16T01:42:23;16.30;99.90
18456;DHT22;9357;49.900;8.208;2022-10-16T01:44:02;16.30;99.90
18456;DHT22;9357;49.900;8.208;2022-10-16T01:45:36;16.30;99.90
18456;DHT22;9357;49.900;8.208;2022-10-16T01:47:10;16.30;99.90
18456;DHT22;9357;49.900;8.208;2022-10-16T01:48:45;16.30;99.90
18456;DHT22;9357;49.900;8.208;2022-10-16T01:50:20;16.30;99.90
18456;DHT22;9357;49.900;8.208;2022-10-16T01:51:56;16.30;99.90
18456;DHT22;9357;49.900;8.208;2022-10-16T01:53:32;16.20;99.90
18456;DHT22;9357;49.900;8.208;2022-10-16T01:55:09;16.20;99.90
18456;DHT22;9357;49.900;8.208;2022-10-16T01:56:42;16.20;99.90
18456;DHT22;9357;49.900;8.208;2022-10-16T01:58:15;16.30;99.90
18456;DHT22;9357;49.900;8.208;2022-10-16T01:59:54;16.20;99.90
18456;DHT22;9357;49.900;8.208;2022-10-16T02:01:30;16.20;99.90
18456;DHT22;9357;49.900;8.208;2022-10-16T02:03:04;16.20;99.90
18456;DHT22;9357;49.900;8.208;2022-10-16T02:04:40;16.20;99.90
18456;DHT22;9357;49.900;8.208;2022-10-16T02:06:15;16.30;99.90
18456;DHT22;9357;49.900;8.208;2022-10-16T02:07:47;16.30;99.90
18456;DHT22;9357;49.900;8.208;2022-10-16T02:09:21;16.20;99.90
18456;DHT22;9357;49.900;8.208;2022-10-16T02:10:54;16.20;99.90
18456;DHT22;9357;49.900;8.208;2022-10-16T02:12:29;16.30;99.90
18456;DHT22;9357;49.900;8.208;2022-10-16T02:14:05;16.20;99.90
18456;DHT22;9357;49.900;8.208;2022-10-16T02:15:38;16.30;99.90
18456;DHT22;9357;49.900;8.208;2022-10-16T02:17:14;16.20;99.90
18456;DHT22;9357;49.900;8.208;2022-10-16T02:18:47;16.20;99.90
18456;DHT22;9357;49.900;8.208;2022-10-16T02:20:22;16.30;99.90
18456;DHT22;9357;49.900;8.208;2022-10-16T02:22:00;16.30;99.90
18456;DHT22;9357;49.900;8.208;2022-10-16T02:23:40;16.20;99.90
18456;DHT22;9357;49.900;8.208;2022-10-16T02:25:22;16.20;99.90
18456;DHT22;9357;49.900;8.208;2022-10-16T02:27:00;16.20;99.90
18456;DHT22;9357;49.900;8.208;2022-10-16T02:28:39;16.20;99.90
18456;DHT22;9357;49.900;8.208;2022-10-16T02:30:17;16.20;99.90
18456;DHT22;9357;49.900;8.208;2022-10-16T02:31:56;16.20;99.90
18456;DHT22;9357;49.900;8.208;2022-10-16T02:33:31;16.20;99.90
18456;DHT22;9357;49.900;8.208;2022-10-16T02:35:07;16.20;99.90
18456;DHT22;9357;49.900;8.208;2022-10-16T02:36:41;16.20;99.90
18456;DHT22;9357;49.900;8.208;2022-10-16T02:38:15;16.20;99.90
18456;DHT22;9357;49.900;8.208;2022-10-16T02:39:48;16.20;99.90
18456;DHT22;9357;49.900;8.208;2022-10-16T02:41:21;16.20;99.90
18456;DHT22;9357;49.900;8.208;2022-10-16T02:42:55;16.20;99.90
18456;DHT22;9357;49.900;8.208;2022-10-16T02:44:28;16.20;99.90
18456;DHT22;9357;49.900;8.208;2022-10-16T02:46:01;16.20;99.90
18456;DHT22;9357;49.900;8.208;2022-10-16T02:47:35;16.30;99.90
18456;DHT22;9357;49.900;8.208;2022-10-16T02:49:08;16.30;99.90
18456;DHT22;9357;49.900;8.208;2022-10-16T02:50:40;16.30;99.90
18456;DHT22;9357;49.900;8.208;2022-10-16T02:52:12;16.30;99.90
18456;DHT22;9357;49.900;8.208;2022-10-16T02:53:45;16.30;99.90
18456;DHT22;9357;49.900;8.208;2022-10-16T02:55:18;16.30;99.90
18456;DHT22;9357;49.900;8.208;2022-10-16T02:56:50;16.30;99.90
18456;DHT22;9357;49.900;8.208;2022-10-16T02:58:23;16.30;99.90
18456;DHT22;9357;49.900;8.208;2022-10-16T02:59:56;16.30;99.90
18456;DHT22;9357;49.900;8.208;2022-10-16T03:01:27;16.30;99.90
18456;DHT22;9357;49.900;8.208;2022-10-16T03:03:02;16.20;99.90
18456;DHT22;9357;49.900;8.208;2022-10-16T03:04:34;16.30;99.90
18456;DHT22;9357;49.900;8.208;2022-10-16T03:06:07;16.20;99.90
18456;DHT22;9357;49.900;8.208;2022-10-16T03:07:40;16.20;99.90
18456;DHT22;9357;49.900;8.208;2022-10-16T03:09:12;16.30;99.90
18456;DHT22;9357;49.900;8.208;2022-10-16T03:10:45;16.20;99.90
18456;DHT22;9357;49.900;8.208;2022-10-16T03:12:17;16.20;99.90
18456;DHT22;9357;49.900;8.208;2022-10-16T03:13:49;16.20;99.90
18456;DHT22;9357;49.900;8.208;2022-10-16T03:15:22;16.20;99.90
18456;DHT22;9357;49.900;8.208;2022-10-16T03:16:55;16.20;99.90
18456;DHT22;9357;49.900;8.208;2022-10-16T03:18:29;16.20;99.90
18456;DHT22;9357;49.900;8.208;2022-10-16T03:20:02;16.20;99.90
18456;DHT22;9357;49.900;8.208;2022-10-16T03:21:35;16.20;99.90
18456;DHT22;9357;49.900;8.208;2022-10-16T03:23:07;16.20;99.90
18456;DHT22;9357;49.900;8.208;2022-10-16T03:24:40;16.10;99.90
18456;DHT22;9357;49.900;8.208;2022-10-16T03:26:13;16.20;99.90
18456;DHT22;9357;49.900;8.208;2022-10-16T03:27:45;16.10;99.90
18456;DHT22;9357;49.900;8.208;2022-10-16T03:29:17;16.10;99.90
18456;DHT22;9357;49.900;8.208;2022-10-16T03:30:50;16.10;99.90
18456;DHT22;9357;49.900;8.208;2022-10-16T03:32:23;16.10;99.90
18456;DHT22;9357;49.900;8.208;2022-10-16T03:33:58;16.10;99.90
18456;DHT22;9357;49.900;8.208;2022-10-16T03:35:29;16.10;99.90
18456;DHT22;9357;49.900;8.208;2022-10-16T03:37:03;16.10;99.90
18456;DHT22;9357;49.900;8.208;2022-10-16T03:38:35;16.10;99.90
18456;DHT22;9357;49.900;8.208;2022-10-16T03:40:09;16.10;99.90
18456;DHT22;9357;49.900;8.208;2022-10-16T03:41:41;16.10;99.90
18456;DHT22;9357;49.900;8.208;2022-10-16T03:43:14;16.10;99.90
18456;DHT22;9357;49.900;8.208;2022-10-16T03:44:50;16.10;99.90
18456;DHT22;9357;49.900;8.208;2022-10-16T03:46:23;16.10;99.90
18456;DHT22;9357;49.900;8.208;2022-10-16T03:47:56;16.10;99.90
18456;DHT22;9357;49.900;8.208;2022-10-16T03:49:30;16.10;99.90
18456;DHT22;9357;49.900;8.208;2022-10-16T03:51:03;16.10;99.90
18456;DHT22;9357;49.900;8.208;2022-10-16T03:52:36;16.10;99.90
18456;DHT22;9357;49.900;8.208;2022-10-16T03:54:09;16.10;99.90
18456;DHT22;9357;49.900;8.208;2022-10-16T03:55:42;16.00;99.90
18456;DHT22;9357;49.900;8.208;2022-10-16T03:57:15;16.10;99.90
18456;DHT22;9357;49.900;8.208;2022-10-16T03:58:48;16.10;99.90
18456;DHT22;9357;49.900;8.208;2022-10-16T04:00:21;16.00;99.90
18456;DHT22;9357;49.900;8.208;2022-10-16T04:01:53;16.00;99.90
18456;DHT22;9357;49.900;8.208;2022-10-16T04:03:26;16.00;99.90
18456;DHT22;9357;49.900;8.208;2022-10-16T04:04:59;16.00;99.90
18456;DHT22;9357;49.900;8.208;2022-10-16T04:06:32;16.00;99.90
18456;DHT22;9357;49.900;8.208;2022-10-16T04:08:05;16.00;99.90
18456;DHT22;9357;49.900;8.208;2022-10-16T04:09:37;16.00;99.90
18456;DHT22;9357;49.900;8.208;2022-10-16T04:11:10;16.10;99.90
18456;DHT22;9357;49.900;8.208;2022-10-16T04:12:43;16.00;99.90
18456;DHT22;9357;49.900;8.208;2022-10-16T04:14:16;16.00;99.90
18456;DHT22;9357;49.900;8.208;2022-10-16T04:15:47;16.00;99.90
18456;DHT22;9357;49.900;8.208;2022-10-16T04:17:20;16.00;99.90
18456;DHT22;9357;49.900;8.208;2022-10-16T04:18:52;16.00;99.90
18456;DHT22;9357;49.900;8.208;2022-10-16T04:20:26;16.00;99.90
18456;DHT22;9357;49.900;8.208;2022-10-16T04:21:59;16.00;99.90
18456;DHT22;9357;49.900;8.208;2022-10-16T04:23:32;16.00;99.90
18456;DHT22;9357;49.900;8.208;2022-10-16T04:25:05;15.90;99.90
18456;DHT22;9357;49.900;8.208;2022-10-16T04:26:38;16.00;99.90
18456;DHT22;9357;49.900;8.208;2022-10-16T04:28:11;16.00;99.90
18456;DHT22;9357;49.900;8.208;2022-10-16T04:29:43;16.00;99.90
18456;DHT22;9357;49.900;8.208;2022-10-16T04:31:16;16.00;99.90
18456;DHT22;9357;49.900;8.208;2022-10-16T04:32:50;16.00;99.90
18456;DHT22;9357;49.900;8.208;2022-10-16T04:34:22;16.00;99.90
18456;DHT22;9357;49.900;8.208;2022-10-16T04:36:00;16.00;99.90
18456;DHT22;9357;49.900;8.208;2022-10-16T04:37:33;16.00;99.90
18456;DHT22;9357;49.900;8.208;2022-10-16T04:39:06;16.00;99.90
18456;DHT22;9357;49.900;8.208;2022-10-16T04:40:39;16.00;99.90
18456;DHT22;9357;49.900;8.208;2022-10-16T04:42:11;16.00;99.90
18456;DHT22;9357;49.900;8.208;2022-10-16T04:43:43;16.00;99.90
18456;DHT22;9357;49.900;8.208;2022-10-16T04:45:16;16.00;99.90
18456;DHT22;9357;49.900;8.208;2022-10-16T04:46:51;16.00;99.90
18456;DHT22;9357;49.900;8.208;2022-10-16T04:48:24;16.00;99.90
18456;DHT22;9357;49.900;8.208;2022-10-16T04:49:56;16.00;99.90
18456;DHT22;9357;49.900;8.208;2022-10-16T04:51:31;16.00;99.90
18456;DHT22;9357;49.900;8.208;2022-10-16T04:53:04;15.90;99.90
18456;DHT22;9357;49.900;8.208;2022-10-16T04:54:37;16.00;99.90
18456;DHT22;9357;49.900;8.208;2022-10-16T04:56:09;16.00;99.90
18456;DHT22;9357;49.900;8.208;2022-10-16T04:57:42;16.00;99.90
18456;DHT22;9357;49.900;8.208;2022-10-16T04:59:14;15.90;99.90
18456;DHT22;9357;49.900;8.208;2022-10-16T05:00:47;16.00;99.90
18456;DHT22;9357;49.900;8.208;2022-10-16T05:02:19;16.00;99.90
18456;DHT22;9357;49.900;8.208;2022-10-16T05:03:52;16.00;99.90
18456;DHT22;9357;49.900;8.208;2022-10-16T05:05:25;16.00;99.90
18456;DHT22;9357;49.900;8.208;2022-10-16T05:06:59;16.00;99.90
18456;DHT22;9357;49.900;8.208;2022-10-16T05:08:32;16.00;99.90
18456;DHT22;9357;49.900;8.208;2022-10-16T05:10:05;16.00;99.90
18456;DHT22;9357;49.900;8.208;2022-10-16T05:11:38;16.00;99.90
18456;DHT22;9357;49.900;8.208;2022-10-16T05:13:11;16.00;99.90
18456;DHT22;9357;49.900;8.208;2022-10-16T05:14:44;16.00;99.90
18456;DHT22;9357;49.900;8.208;2022-10-16T05:16:16;16.00;99.90
18456;DHT22;9357;49.900;8.208;2022-10-16T05:17:52;16.00;99.90
18456;DHT22;9357;49.900;8.208;2022-10-16T05:19:25;16.00;99.90
18456;DHT22;9357;49.900;8.208;2022-10-16T05:20:59;16.00;99.90
18456;DHT22;9357;49.900;8.208;2022-10-16T05:22:33;16.00;99.90
18456;DHT22;9357;49.900;8.208;2022-10-16T05:24:06;16.00;99.90
18456;DHT22;9357;49.900;8.208;2022-10-16T05:25:38;16.00;99.90
18456;DHT22;9357;49.900;8.208;2022-10-16T05:27:11;16.00;99.90
18456;DHT22;9357;49.900;8.208;2022-10-16T05:28:50;16.00;99.90
18456;DHT22;9357;49.900;8.208;2022-10-16T05:30:23;16.00;99.90
18456;DHT22;9357;49.900;8.208;2022-10-16T05:31:56;16.00;99.90
18456;DHT22;9357;49.900;8.208;2022-10-16T05:33:28;16.00;99.90
18456;DHT22;9357;49.900;8.208;2022-10-16T05:35:01;16.00;99.90
18456;DHT22;9357;49.900;8.208;2022-10-16T05:36:37;16.00;99.90
18456;DHT22;9357;49.900;8.208;2022-10-16T05:38:11;16.00;99.90
18456;DHT22;9357;49.900;8.208;2022-10-16T05:39:43;16.00;99.90
18456;DHT22;9357;49.900;8.208;2022-10-16T05:41:15;16.00;99.90
18456;DHT22;9357;49.900;8.208;2022-10-16T05:42:55;16.00;99.90
18456;DHT22;9357;49.900;8.208;2022-10-16T05:44:27;16.00;99.90
18456;DHT22;9357;49.900;8.208;2022-10-16T05:46:03;16.00;99.90
18456;DHT22;9357;49.900;8.208;2022-10-16T05:47:36;16.00;99.90
18456;DHT22;9357;49.900;8.208;2022-10-16T05:49:09;16.00;99.90
18456;DHT22;9357;49.900;8.208;2022-10-16T05:50:42;16.00;99.90
18456;DHT22;9357;49.900;8.208;2022-10-16T05:52:14;16.00;99.90
18456;DHT22;9357;49.900;8.208;2022-10-16T05:53:49;16.00;99.90
18456;DHT22;9357;49.900;8.208;2022-10-16T05:55:21;16.00;99.90
18456;DHT22;9357;49.900;8.208;2022-10-16T05:56:53;16.00;99.90
18456;DHT22;9357;49.900;8.208;2022-10-16T05:58:29;16.10;99.90
18456;DHT22;9357;49.900;8.208;2022-10-16T06:00:03;16.10;99.90
18456;DHT22;9357;49.900;8.208;2022-10-16T06:01:36;16.10;99.90
18456;DHT22;9357;49.900;8.208;2022-10-16T06:03:09;16.10;99.90
18456;DHT22;9357;49.900;8.208;2022-10-16T06:04:42;16.10;99.90
18456;DHT22;9357;49.900;8.208;2022-10-16T06:06:16;16.00;99.90
18456;DHT22;9357;49.900;8.208;2022-10-16T06:07:49;16.00;99.90
18456;DHT22;9357;49.900;8.208;2022-10-16T06:09:23;16.00;99.90
18456;DHT22;9357;49.900;8.208;2022-10-16T06:11:02;16.00;99.90
18456;DHT22;9357;49.900;8.208;2022-10-16T06:12:35;16.00;99.90
18456;DHT22;9357;49.900;8.208;2022-10-16T06:14:08;16.00;99.90
18456;DHT22;9357;49.900;8.208;2022-10-16T06:15:42;16.10;99.90
18456;DHT22;9357;49.900;8.208;2022-10-16T06:17:15;16.10;99.90
18456;DHT22;9357;49.900;8.208;2022-10-16T06:18:50;16.10;99.90
18456;DHT22;9357;49.900;8.208;2022-10-16T06:20:22;16.10;99.90
18456;DHT22;9357;49.900;8.208;2022-10-16T06:21:55;16.10;99.90
18456;DHT22;9357;49.900;8.208;2022-10-16T06:23:29;16.10;99.90
18456;DHT22;9357;49.900;8.208;2022-10-16T06:25:04;16.10;99.90
18456;DHT22;9357;49.900;8.208;2022-10-16T06:26:37;16.10;99.90
18456;DHT22;9357;49.900;8.208;2022-10-16T06:28:10;16.00;99.90
18456;DHT22;9357;49.900;8.208;2022-10-16T06:29:42;16.00;99.90
18456;DHT22;9357;49.900;8.208;2022-10-16T06:31:17;16.00;99.90
18456;DHT22;9357;49.900;8.208;2022-10-16T06:32:50;16.00;99.90
18456;DHT22;9357;49.900;8.208;2022-10-16T06:34:22;16.00;99.90
18456;DHT22;9357;49.900;8.208;2022-10-16T06:36:00;16.00;99.90
18456;DHT22;9357;49.900;8.208;2022-10-16T06:37:32;16.00;99.90
18456;DHT22;9357;49.900;8.208;2022-10-16T06:39:05;16.00;99.90
18456;DHT22;9357;49.900;8.208;2022-10-16T06:40:40;16.10;99.90
18456;DHT22;9357;49.900;8.208;2022-10-16T06:42:12;16.10;99.90
18456;DHT22;9357;49.900;8.208;2022-10-16T06:43:44;16.10;99.90
18456;DHT22;9357;49.900;8.208;2022-10-16T06:45:17;16.10;99.90
18456;DHT22;9357;49.900;8.208;2022-10-16T06:46:49;16.10;99.90
18456;DHT22;9357;49.900;8.208;2022-10-16T06:48:23;16.10;99.90
18456;DHT22;9357;49.900;8.208;2022-10-16T06:49:56;16.10;99.90
18456;DHT22;9357;49.900;8.208;2022-10-16T06:51:27;16.10;99.90
18456;DHT22;9357;49.900;8.208;2022-10-16T06:53:01;16.10;99.90
18456;DHT22;9357;49.900;8.208;2022-10-16T06:54:34;16.10;99.90
18456;DHT22;9357;49.900;8.208;2022-10-16T06:56:16;16.10;99.90
18456;DHT22;9357;49.900;8.208;2022-10-16T06:57:49;16.10;99.90
18456;DHT22;9357;49.900;8.208;2022-10-16T06:59:22;16.10;99.90
18456;DHT22;9357;49.900;8.208;2022-10-16T07:00:55;16.10;99.90
18456;DHT22;9357;49.900;8.208;2022-10-16T07:02:29;16.10;99.90
18456;DHT22;9357;49.900;8.208;2022-10-16T07:04:02;16.10;99.90
18456;DHT22;9357;49.900;8.208;2022-10-16T07:05:37;16.10;99.90
18456;DHT22;9357;49.900;8.208;2022-10-16T07:07:10;16.20;99.90
18456;DHT22;9357;49.900;8.208;2022-10-16T07:08:44;16.20;99.90
18456;DHT22;9357;49.900;8.208;2022-10-16T07:10:17;16.20;99.90
18456;DHT22;9357;49.900;8.208;2022-10-16T07:11:51;16.20;99.90
18456;DHT22;9357;49.900;8.208;2022-10-16T07:13:26;16.20;99.90
18456;DHT22;9357;49.900;8.208;2022-10-16T07:14:59;16.20;99.90
18456;DHT22;9357;49.900;8.208;2022-10-16T07:16:32;16.20;99.90
18456;DHT22;9357;49.900;8.208;2022-10-16T07:18:04;16.20;99.90
18456;DHT22;9357;49.900;8.208;2022-10-16T07:19:37;16.20;99.90
18456;DHT22;9357;49.900;8.208;2022-10-16T07:21:10;16.20;99.90
18456;DHT22;9357;49.900;8.208;2022-10-16T07:22:43;16.20;99.90
18456;DHT22;9357;49.900;8.208;2022-10-16T07:24:16;16.20;99.90
18456;DHT22;9357;49.900;8.208;2022-10-16T07:25:54;16.20;99.90
18456;DHT22;9357;49.900;8.208;2022-10-16T07:27:28;16.10;99.90
18456;DHT22;9357;49.900;8.208;2022-10-16T07:29:01;16.10;99.90
18456;DHT22;9357;49.900;8.208;2022-10-16T07:30:35;16.00;99.90
18456;DHT22;9357;49.900;8.208;2022-10-16T07:32:08;16.00;99.90
18456;DHT22;9357;49.900;8.208;2022-10-16T07:33:42;16.00;99.90
18456;DHT22;9357;49.900;8.208;2022-10-16T07:35:15;16.00;99.90
18456;DHT22;9357;49.900;8.208;2022-10-16T07:36:49;16.00;99.90
18456;DHT22;9357;49.900;8.208;2022-10-16T07:38:22;16.00;99.90
18456;DHT22;9357;49.900;8.208;2022-10-16T07:39:54;16.10;99.90
18456;DHT22;9357;49.900;8.208;2022-10-16T07:41:27;16.10;99.90
18456;DHT22;9357;49.900;8.208;2022-10-16T07:43:01;16.10;99.90
18456;DHT22;9357;49.900;8.208;2022-10-16T07:44:36;16.10;99.90
18456;DHT22;9357;49.900;8.208;2022-10-16T07:46:09;16.10;99.90
18456;DHT22;9357;49.900;8.208;2022-10-16T07:47:42;16.10;99.90
18456;DHT22;9357;49.900;8.208;2022-10-16T07:49:15;16.00;99.90
18456;DHT22;9357;49.900;8.208;2022-10-16T07:50:47;16.10;99.90
18456;DHT22;9357;49.900;8.208;2022-10-16T07:52:19;16.10;99.90
18456;DHT22;9357;49.900;8.208;2022-10-16T07:53:52;16.10;99.90
18456;DHT22;9357;49.900;8.208;2022-10-16T07:55:24;16.10;99.90
18456;DHT22;9357;49.900;8.208;2022-10-16T07:56:57;16.10;99.90
18456;DHT22;9357;49.900;8.208;2022-10-16T07:58:32;16.20;99.90
18456;DHT22;9357;49.900;8.208;2022-10-16T08:00:06;16.20;99.90
18456;DHT22;9357;49.900;8.208;2022-10-16T08:01:39;16.20;99.90
18456;DHT22;9357;49.900;8.208;2022-10-16T08:03:13;16.20;99.90
18456;DHT22;9357;49.900;8.208;2022-10-16T08:04:46;16.30;99.90
18456;DHT22;9357;49.900;8.208;2022-10-16T08:06:20;16.30;99.90
18456;DHT22;9357;49.900;8.208;2022-10-16T08:07:58;16.30;99.90
18456;DHT22;9357;49.900;8.208;2022-10-16T08:09:31;16.30;99.90
18456;DHT22;9357;49.900;8.208;2022-10-16T08:11:04;16.30;99.90
18456;DHT22;9357;49.900;8.208;2022-10-16T08:12:37;16.40;99.90
18456;DHT22;9357;49.900;8.208;2022-10-16T08:14:11;16.40;99.90
18456;DHT22;9357;49.900;8.208;2022-10-16T08:15:44;16.40;99.90
18456;DHT22;9357;49.900;8.208;2022-10-16T08:17:17;16.40;99.90
18456;DHT22;9357;49.900;8.208;2022-10-16T08:18:50;16.40;99.90
18456;DHT22;9357;49.900;8.208;2022-10-16T08:20:23;16.30;99.90
18456;DHT22;9357;49.900;8.208;2022-10-16T08:21:56;16.40;99.90
18456;DHT22;9357;49.900;8.208;2022-10-16T08:23:29;16.40;99.90
18456;DHT22;9357;49.900;8.208;2022-10-16T08:25:02;16.30;99.90
18456;DHT22;9357;49.900;8.208;2022-10-16T08:26:34;16.30;99.90
18456;DHT22;9357;49.900;8.208;2022-10-16T08:28:09;16.40;99.90
18456;DHT22;9357;49.900;8.208;2022-10-16T08:29:43;16.40;99.90
18456;DHT22;9357;49.900;8.208;2022-10-16T08:31:16;16.40;99.90
18456;DHT22;9357;49.900;8.208;2022-10-16T08:32:49;16.40;99.90
18456;DHT22;9357;49.900;8.208;2022-10-16T08:34:22;16.40;99.90
18456;DHT22;9357;49.900;8.208;2022-10-16T08:35:55;16.40;99.90
18456;DHT22;9357;49.900;8.208;2022-10-16T08:37:29;16.40;99.90
18456;DHT22;9357;49.900;8.208;2022-10-16T08:39:02;16.50;99.90
18456;DHT22;9357;49.900;8.208;2022-10-16T08:40:37;16.40;99.90
18456;DHT22;9357;49.900;8.208;2022-10-16T08:42:24;16.40;99.90
18456;DHT22;9357;49.900;8.208;2022-10-16T08:44:19;16.50;99.90
18456;DHT22;9357;49.900;8.208;2022-10-16T08:46:13;16.50;99.90
18456;DHT22;9357;49.900;8.208;2022-10-16T08:47:53;16.50;99.90
18456;DHT22;9357;49.900;8.208;2022-10-16T08:49:29;16.50;99.90
18456;DHT22;9357;49.900;8.208;2022-10-16T08:51:04;16.50;99.90
18456;DHT22;9357;49.900;8.208;2022-10-16T08:52:42;16.50;99.90
18456;DHT22;9357;49.900;8.208;2022-10-16T08:54:26;16.50;99.90
18456;DHT22;9357;49.900;8.208;2022-10-16T08:56:00;16.60;99.90
18456;DHT22;9357;49.900;8.208;2022-10-16T08:57:33;16.60;99.90
18456;DHT22;9357;49.900;8.208;2022-10-16T08:59:10;16.60;99.90
18456;DHT22;9357;49.900;8.208;2022-10-16T09:00:45;16.60;99.90
18456;DHT22;9357;49.900;8.208;2022-10-16T09:02:24;16.60;99.90
18456;DHT22;9357;49.900;8.208;2022-10-16T09:04:14;16.60;99.90
18456;DHT22;9357;49.900;8.208;2022-10-16T09:06:17;16.60;99.90
18456;DHT22;9357;49.900;8.208;2022-10-16T09:08:02;16.70;99.90
18456;DHT22;9357;49.900;8.208;2022-10-16T09:09:53;16.70;99.90
18456;DHT22;9357;49.900;8.208;2022-10-16T09:11:41;16.70;99.90
18456;DHT22;9357;49.900;8.208;2022-10-16T09:13:21;16.70;99.90
18456;DHT22;9357;49.900;8.208;2022-10-16T09:15:02;16.70;99.90
18456;DHT22;9357;49.900;8.208;2022-10-16T09:16:41;16.70;99.90
18456;DHT22;9357;49.900;8.208;2022-10-16T09:18:22;16.80;99.90
18456;DHT22;9357;49.900;8.208;2022-10-16T09:20:13;16.90;99.90
18456;DHT22;9357;49.900;8.208;2022-10-16T09:21:50;16.90;99.90
18456;DHT22;9357;49.900;8.208;2022-10-16T09:23:27;17.00;99.90
18456;DHT22;9357;49.900;8.208;2022-10-16T09:25:11;17.00;99.90
18456;DHT22;9357;49.900;8.208;2022-10-16T09:26:44;17.00;99.90
18456;DHT22;9357;49.900;8.208;2022-10-16T09:28:17;17.10;99.90
18456;DHT22;9357;49.900;8.208;2022-10-16T09:29:50;17.10;99.90
18456;DHT22;9357;49.900;8.208;2022-10-16T09:31:30;17.20;99.90
18456;DHT22;9357;49.900;8.208;2022-10-16T09:33:03;17.40;99.90
18456;DHT22;9357;49.900;8.208;2022-10-16T09:34:40;17.50;99.90
18456;DHT22;9357;49.900;8.208;2022-10-16T09:36:15;17.60;99.90
18456;DHT22;9357;49.900;8.208;2022-10-16T09:37:50;17.60;99.90
18456;DHT22;9357;49.900;8.208;2022-10-16T09:39:23;17.60;99.90
18456;DHT22;9357;49.900;8.208;2022-10-16T09:40:58;17.60;99.90
18456;DHT22;9357;49.900;8.208;2022-10-16T09:42:36;17.50;99.90
18456;DHT22;9357;49.900;8.208;2022-10-16T09:44:19;17.50;99.90
18456;DHT22;9357;49.900;8.208;2022-10-16T09:45:57;17.40;99.90
18456;DHT22;9357;49.900;8.208;2022-10-16T09:47:31;17.40;99.90
18456;DHT22;9357;49.900;8.208;2022-10-16T09:49:17;17.30;99.90
18456;DHT22;9357;49.900;8.208;2022-10-16T09:51:00;17.30;99.90
18456;DHT22;9357;49.900;8.208;2022-10-16T09:52:33;17.40;99.90
18456;DHT22;9357;49.900;8.208;2022-10-16T09:54:14;17.40;99.90
18456;DHT22;9357;49.900;8.208;2022-10-16T09:55:50;17.50;99.90
18456;DHT22;9357;49.900;8.208;2022-10-16T09:57:23;17.40;99.90
18456;DHT22;9357;49.900;8.208;2022-10-16T09:58:58;17.40;99.90
18456;DHT22;9357;49.900;8.208;2022-10-16T10:00:31;17.40;99.90
18456;DHT22;9357;49.900;8.208;2022-10-16T10:02:11;17.40;99.90
18456;DHT22;9357;49.900;8.208;2022-10-16T10:03:46;17.40;99.90
18456;DHT22;9357;49.900;8.208;2022-10-16T10:05:22;17.40;99.90
18456;DHT22;9357;49.900;8.208;2022-10-16T10:06:58;17.50;99.90